createdAt,value
2018-03-25T00:02:15.062Z,15.50
2018-03-25T00:04:42.520Z,15.47
2018-03-25T00:07:10.753Z,14.80
2018-03-25T00:09:38.193Z,16.63
2018-03-25T00:12:05.658Z,16.17
2018-03-25T00:14:33.105Z,16.63
2018-03-25T00:17:00.561Z,14.53
2018-03-25T00:19:28.015Z,14.60
2018-03-25T00:21:55.469Z,14.17
2018-03-25T00:24:22.920Z,14.77
2018-03-25T00:26:50.384Z,16.10
2018-03-25T00:29:17.842Z,14.93
2018-03-25T00:31:45.301Z,14.70
2018-03-25T00:34:12.741Z,14.83
2018-03-25T00:36:40.971Z,16.37
2018-03-25T00:39:08.417Z,15.20
2018-03-25T00:41:35.888Z,15.87
2018-03-25T00:44:03.340Z,14.77
2018-03-25T00:46:30.805Z,15.93
2018-03-25T00:48:58.279Z,15.50
2018-03-25T00:51:25.735Z,16.40
2018-03-25T00:53:53.196Z,15.47
2018-03-25T00:56:20.657Z,14.67
2018-03-25T00:58:48.110Z,16.43
2018-03-25T01:01:15.568Z,15.77
2018-03-25T01:03:43.029Z,15.23
2018-03-25T01:06:11.240Z,15.27
2018-03-25T01:08:38.686Z,16.10
2018-03-25T01:11:06.130Z,17.33
2018-03-25T01:13:34.380Z,17.17
2018-03-25T01:16:09.777Z,17.43
2018-03-25T01:18:37.241Z,18.30
2018-03-25T01:21:04.703Z,18.03
2018-03-25T01:23:32.150Z,19.53
2018-03-25T01:25:59.613Z,17.17
2018-03-25T01:28:27.084Z,16.33
2018-03-25T01:30:54.531Z,16.13
2018-03-25T01:33:22.016Z,15.90
2018-03-25T01:35:50.301Z,15.98
2018-03-25T01:38:17.765Z,17.10
2018-03-25T01:40:45.205Z,15.80
2018-03-25T01:43:12.660Z,17.87
2018-03-25T01:45:40.157Z,15.43
2018-03-25T01:48:08.384Z,15.80
2018-03-25T01:50:35.834Z,16.63
2018-03-25T01:53:03.292Z,15.13
2018-03-25T01:55:30.767Z,15.57
2018-03-25T01:57:58.219Z,16.03
2018-03-25T02:00:25.684Z,16.03
2018-03-25T02:02:53.139Z,15.33
2018-03-25T02:05:20.880Z,15.60
2018-03-25T02:07:48.326Z,14.70
2018-03-25T02:10:15.785Z,15.63
2018-03-25T02:12:43.247Z,18.23
2018-03-25T02:15:10.733Z,17.43
2018-03-25T02:17:38.181Z,17.30
2018-03-25T02:20:05.640Z,19.43
2018-03-25T02:22:33.152Z,17.80
2018-03-25T02:25:01.421Z,16.70
2018-03-25T02:27:29.637Z,16.13
2018-03-25T02:29:57.097Z,15.45
2018-03-25T02:32:24.541Z,17.07
2018-03-25T02:34:52.000Z,15.30
2018-03-25T02:37:19.479Z,15.03
2018-03-25T02:39:57.123Z,16.97
2018-03-25T02:42:25.354Z,15.27
2018-03-25T02:44:52.820Z,14.90
2018-03-25T02:47:20.262Z,14.97
2018-03-25T02:49:47.724Z,15.80
2018-03-25T02:52:15.197Z,14.32
2018-03-25T02:54:42.640Z,15.00
2018-03-25T02:57:10.100Z,16.27
2018-03-25T02:59:37.552Z,14.97
2018-03-25T03:02:05.022Z,16.12
2018-03-25T03:04:32.472Z,15.27
2018-03-25T03:06:59.927Z,15.17
2018-03-25T03:09:27.386Z,16.20
2018-03-25T03:11:54.838Z,15.27
2018-03-25T03:14:22.317Z,15.90
2018-03-25T03:16:49.772Z,17.20
2018-03-25T03:19:17.253Z,13.70
2018-03-25T03:21:45.475Z,15.23
2018-03-25T03:24:12.923Z,15.57
2018-03-25T03:26:40.387Z,15.73
2018-03-25T03:29:07.878Z,15.53
2018-03-25T03:31:35.371Z,14.57
2018-03-25T03:34:03.567Z,15.20
2018-03-25T03:36:31.056Z,14.32
2018-03-25T03:38:58.608Z,15.15
2018-03-25T03:41:26.084Z,14.70
2018-03-25T03:43:53.539Z,14.80
2018-03-25T03:46:20.992Z,15.27
2018-03-25T03:48:48.443Z,14.67
2018-03-25T03:51:15.894Z,15.13
2018-03-25T03:53:43.351Z,15.23
2018-03-25T03:56:10.808Z,13.37
2018-03-25T03:58:38.280Z,16.30
2018-03-25T04:01:05.732Z,16.23
2018-03-25T04:03:33.183Z,16.40
2018-03-25T04:06:00.645Z,16.00
2018-03-25T04:08:28.107Z,14.97
2018-03-25T04:10:55.560Z,15.40
2018-03-25T04:13:23.024Z,16.00
2018-03-25T04:15:50.494Z,15.83
2018-03-25T04:18:17.964Z,16.52
2018-03-25T04:20:46.173Z,15.13
2018-03-25T04:23:13.636Z,15.27
2018-03-25T04:25:41.091Z,15.20
2018-03-25T04:28:08.549Z,16.07
2018-03-25T04:30:37.340Z,15.87
2018-03-25T04:33:04.808Z,15.43
2018-03-25T04:35:32.266Z,14.87
2018-03-25T04:37:59.749Z,14.73
2018-03-25T04:40:27.204Z,17.23
2018-03-25T04:42:54.657Z,16.20
2018-03-25T04:45:22.098Z,16.50
2018-03-25T04:47:49.567Z,19.47
2018-03-25T04:50:17.025Z,19.07
2018-03-25T04:52:44.513Z,20.23
2018-03-25T04:55:12.740Z,21.60
2018-03-25T04:57:40.190Z,17.50
2018-03-25T05:00:07.646Z,17.20
2018-03-25T05:02:35.102Z,16.43
2018-03-25T05:05:02.553Z,17.97
2018-03-25T05:07:30.018Z,17.57
2018-03-25T05:09:57.468Z,18.13
2018-03-25T05:12:24.944Z,19.97
2018-03-25T05:14:53.325Z,16.23
2018-03-25T05:17:21.064Z,15.27
2018-03-25T05:19:48.539Z,17.30
2018-03-25T05:22:16.044Z,16.20
2018-03-25T05:24:44.265Z,15.20
2018-03-25T05:27:11.720Z,15.52
2018-03-25T05:29:39.537Z,17.00
2018-03-25T05:32:06.991Z,17.67
2018-03-25T05:34:34.432Z,18.13
2018-03-25T05:37:03.337Z,19.77
2018-03-25T05:39:30.801Z,19.97
2018-03-25T05:41:59.026Z,21.93
2018-03-25T05:44:26.487Z,17.27
2018-03-25T05:46:53.945Z,16.57
2018-03-25T05:49:21.391Z,18.20
2018-03-25T05:51:48.848Z,18.20
2018-03-25T05:54:16.304Z,15.87
2018-03-25T05:56:43.768Z,17.20
2018-03-25T05:59:13.283Z,17.50
2018-03-25T06:01:40.727Z,16.20
2018-03-25T06:04:08.204Z,16.40
2018-03-25T06:06:35.660Z,16.90
2018-03-25T06:09:03.140Z,18.60
2018-03-25T06:11:30.591Z,19.03
2018-03-25T06:13:58.041Z,21.00
2018-03-25T06:16:25.495Z,20.63
2018-03-25T06:18:52.952Z,19.20
2018-03-25T06:21:20.401Z,21.60
2018-03-25T06:23:47.864Z,21.60
2018-03-25T06:26:15.324Z,22.50
2018-03-25T06:28:43.032Z,21.27
2018-03-25T06:31:11.236Z,22.20
2018-03-25T06:33:38.692Z,23.97
2018-03-25T06:36:06.156Z,22.50
2018-03-25T06:38:33.603Z,20.90
2018-03-25T06:41:01.049Z,20.40
2018-03-25T06:43:28.516Z,20.60
2018-03-25T06:45:59.485Z,21.20
2018-03-25T06:48:26.940Z,19.50
2018-03-25T06:50:54.389Z,20.67
2018-03-25T06:53:21.847Z,19.40
2018-03-25T06:55:49.310Z,21.05
2018-03-25T06:58:16.769Z,19.47
2018-03-25T07:00:45.021Z,22.27
2018-03-25T07:03:12.500Z,21.23
2018-03-25T07:05:39.948Z,22.07
2018-03-25T07:08:07.424Z,21.30
2018-03-25T07:10:34.892Z,18.97
2018-03-25T07:13:02.340Z,20.70
2018-03-25T07:15:29.793Z,19.20
2018-03-25T07:17:57.271Z,22.50
2018-03-25T07:20:24.737Z,19.87
2018-03-25T07:22:53.051Z,19.10
2018-03-25T07:25:20.516Z,19.70
2018-03-25T07:27:47.970Z,20.07
2018-03-25T07:30:15.416Z,19.50
2018-03-25T07:32:42.900Z,19.50
2018-03-25T07:35:10.372Z,20.23
2018-03-25T07:37:37.847Z,19.43
2018-03-25T07:40:05.305Z,20.50
2018-03-25T07:42:32.764Z,20.33
2018-03-25T07:45:00.231Z,20.30
2018-03-25T07:47:28.448Z,19.90
2018-03-25T07:49:56.012Z,20.83
2018-03-25T07:52:23.464Z,19.93
2018-03-25T07:54:50.920Z,19.90
2018-03-25T07:57:18.396Z,22.00
2018-03-25T07:59:45.846Z,20.57
2018-03-25T08:02:13.326Z,20.70
2018-03-25T08:04:40.780Z,19.47
2018-03-25T08:07:08.240Z,18.83
2018-03-25T08:09:35.700Z,21.40
2018-03-25T08:12:03.418Z,18.83
2018-03-25T08:14:34.781Z,20.97
2018-03-25T08:17:02.254Z,20.17
2018-03-25T08:19:29.699Z,21.10
2018-03-25T08:21:57.152Z,19.20
2018-03-25T08:24:24.624Z,20.40
2018-03-25T08:26:52.095Z,18.80
2018-03-25T08:29:19.547Z,17.40
2018-03-25T08:31:47.001Z,17.77
2018-03-25T08:34:14.456Z,20.07
2018-03-25T08:36:41.923Z,18.07
2018-03-25T08:39:09.364Z,19.10
2018-03-25T08:41:36.828Z,19.47
2018-03-25T08:44:04.276Z,16.60
2018-03-25T08:46:31.817Z,18.07
2018-03-25T08:48:59.262Z,17.33
2018-03-25T08:51:27.475Z,17.43
2018-03-25T08:53:55.342Z,18.80
2018-03-25T08:56:23.024Z,15.57
2018-03-25T08:58:50.581Z,17.27
2018-03-25T09:01:18.032Z,16.23
2018-03-25T09:03:45.480Z,15.90
2018-03-25T09:06:12.936Z,17.53
2018-03-25T09:08:40.400Z,15.52
2018-03-25T09:11:07.856Z,16.30
2018-03-25T09:13:35.428Z,18.27
2018-03-25T09:16:02.873Z,17.47
2018-03-25T09:18:30.343Z,17.17
2018-03-25T09:20:57.801Z,17.60
2018-03-25T09:23:25.263Z,16.93
2018-03-25T09:25:52.724Z,17.40
2018-03-25T09:28:20.181Z,17.60
2018-03-25T09:30:47.628Z,18.03
2018-03-25T09:33:15.092Z,17.33
2018-03-25T09:35:42.545Z,17.83
2018-03-25T09:38:10.092Z,15.27
2018-03-25T09:40:37.549Z,16.57
2018-03-25T09:43:05.029Z,18.50
2018-03-25T09:45:33.249Z,17.50
2018-03-25T09:48:00.717Z,17.07
2018-03-25T09:50:28.185Z,18.10
2018-03-25T09:52:55.646Z,17.73
2018-03-25T09:55:23.085Z,18.73
2018-03-25T09:57:50.535Z,20.13
2018-03-25T10:13:38.358Z,25.30
2018-03-25T10:16:05.814Z,19.53
2018-03-25T10:18:33.277Z,16.93
2018-03-25T10:21:00.742Z,19.00
2018-03-25T10:23:28.193Z,17.80
2018-03-25T10:25:55.681Z,17.07
2018-03-25T10:28:23.115Z,16.60
2018-03-25T10:30:50.564Z,17.60
2018-03-25T10:33:18.021Z,17.50
2018-03-25T10:35:45.480Z,16.90
2018-03-25T10:38:12.959Z,16.93
2018-03-25T10:40:40.419Z,16.90
2018-03-25T10:43:07.873Z,17.02
2018-03-25T10:45:35.318Z,16.60
2018-03-25T10:48:02.760Z,15.40
2018-03-25T10:50:30.211Z,16.27
2018-03-25T10:52:58.605Z,18.67
2018-03-25T10:55:26.066Z,16.63
2018-03-25T10:57:53.520Z,17.43
2018-03-25T11:00:20.979Z,17.53
2018-03-25T11:02:48.423Z,15.87
2018-03-25T11:05:15.927Z,16.90
2018-03-25T11:07:43.370Z,16.30
2018-03-25T11:10:10.832Z,19.30
2018-03-25T11:12:38.271Z,17.43
2018-03-25T11:15:15.603Z,16.77
2018-03-25T11:17:43.813Z,15.80
2018-03-25T11:20:11.277Z,15.10
2018-03-25T11:22:38.728Z,16.93
2018-03-25T11:25:06.193Z,15.37
2018-03-25T11:27:33.667Z,15.30
2018-03-25T11:30:01.117Z,15.30
2018-03-25T11:32:28.576Z,13.63
2018-03-25T11:34:56.044Z,15.97
2018-03-25T11:37:23.484Z,15.33
2018-03-25T11:39:50.931Z,14.97
2018-03-25T11:42:18.388Z,15.63
2018-03-25T11:44:45.861Z,14.97
2018-03-25T11:47:13.344Z,15.10
2018-03-25T11:49:40.828Z,16.08
2018-03-25T11:52:08.279Z,14.30
2018-03-25T11:54:36.491Z,15.50
2018-03-25T11:57:03.957Z,16.07
2018-03-25T11:59:31.439Z,16.65
2018-03-25T12:01:58.900Z,16.50
2018-03-25T12:04:26.368Z,14.93
2018-03-25T12:06:53.833Z,15.00
2018-03-25T12:09:21.291Z,15.83
2018-03-25T12:11:48.764Z,14.73
2018-03-25T12:14:16.993Z,14.93
2018-03-25T12:16:44.477Z,14.77
2018-03-25T12:19:11.948Z,16.03
2018-03-25T12:21:40.166Z,16.03
2018-03-25T12:24:07.628Z,15.70
2018-03-25T12:26:35.100Z,15.53
2018-03-25T12:29:02.544Z,17.77
2018-03-25T12:31:30.004Z,16.60
2018-03-25T12:33:57.469Z,16.73
2018-03-25T12:36:25.048Z,17.27
2018-03-25T12:38:52.501Z,17.00
2018-03-25T12:41:19.955Z,16.83
2018-03-25T12:43:47.422Z,17.08
2018-03-25T12:46:14.868Z,15.87
2018-03-25T12:48:42.433Z,16.80
2018-03-25T12:51:09.879Z,18.17
2018-03-25T12:53:37.352Z,16.33
2018-03-25T12:56:04.801Z,16.97
2018-03-25T12:58:32.249Z,15.60
2018-03-25T13:00:59.728Z,14.00
2018-03-25T13:03:27.205Z,15.43
2018-03-25T13:05:55.430Z,14.57
2018-03-25T13:08:22.897Z,15.57
2018-03-25T13:10:50.352Z,13.73
2018-03-25T13:13:17.824Z,14.17
2018-03-25T13:15:45.276Z,15.63
2018-03-25T13:18:12.725Z,17.20
2018-03-25T13:20:40.184Z,19.30
2018-03-25T13:23:07.638Z,17.67
2018-03-25T13:25:35.103Z,19.00
2018-03-25T13:28:02.566Z,19.80
2018-03-25T13:30:30.022Z,17.43
2018-03-25T13:32:57.484Z,16.87
2018-03-25T13:35:24.949Z,17.40
2018-03-25T13:37:52.420Z,18.00
2018-03-25T13:40:20.636Z,18.27
2018-03-25T13:42:48.144Z,18.63
2018-03-25T13:45:15.595Z,16.33
2018-03-25T13:47:43.064Z,17.83
2018-03-25T13:50:10.521Z,19.70
2018-03-25T13:52:39.374Z,17.53
2018-03-25T13:55:06.824Z,18.00
2018-03-25T13:57:34.303Z,18.27
2018-03-25T14:00:01.756Z,17.07
2018-03-25T14:02:29.230Z,15.97
2018-03-25T14:04:56.695Z,16.97
2018-03-25T14:07:24.147Z,16.30
2018-03-25T14:09:51.644Z,16.10
2018-03-25T14:12:19.093Z,16.97
2018-03-25T14:14:46.569Z,15.20
2018-03-25T14:17:14.024Z,15.20
2018-03-25T14:19:41.493Z,16.60
2018-03-25T14:22:08.948Z,16.70
2018-03-25T14:24:36.446Z,16.90
2018-03-25T14:27:05.408Z,15.77
2018-03-25T14:29:32.883Z,18.50
2018-03-25T14:32:00.326Z,16.10
2018-03-25T14:34:27.804Z,15.40
2018-03-25T14:36:55.268Z,15.70
2018-03-25T14:39:22.740Z,15.10
2018-03-25T14:41:51.128Z,14.50
2018-03-25T14:44:20.288Z,17.53
2018-03-25T14:46:47.724Z,15.50
2018-03-25T14:49:15.185Z,17.33
2018-03-25T14:51:42.637Z,15.33
2018-03-25T14:54:10.103Z,15.83
2018-03-25T14:56:37.568Z,15.50
2018-03-25T14:59:05.022Z,14.33
2018-03-25T15:01:32.534Z,15.27
2018-03-25T15:04:00.749Z,14.97
2018-03-25T15:06:29.348Z,14.60
2018-03-25T15:08:56.831Z,15.60
2018-03-25T15:11:24.261Z,16.30
2018-03-25T15:13:51.781Z,16.47
2018-03-25T15:16:19.216Z,16.20
2018-03-25T15:18:47.449Z,15.73
2018-03-25T15:21:14.903Z,15.67
2018-03-25T15:23:42.364Z,14.97
2018-03-25T15:26:09.859Z,15.53
2018-03-25T15:28:37.268Z,16.20
2018-03-25T15:31:04.735Z,15.40
2018-03-25T15:33:32.189Z,14.97
2018-03-25T15:35:59.641Z,18.20
2018-03-25T15:38:27.096Z,19.40
2018-03-25T15:40:54.566Z,24.10
2018-03-25T15:43:22.033Z,19.10
2018-03-25T15:45:49.483Z,21.80
2018-03-25T15:48:16.944Z,21.60
2018-03-25T15:50:44.752Z,18.58
2018-03-25T15:53:12.363Z,16.03
2018-03-25T15:55:39.841Z,15.70
2018-03-25T15:58:07.287Z,16.07
2018-03-25T16:00:34.764Z,14.90
2018-03-25T16:03:02.995Z,16.73
2018-03-25T16:05:30.449Z,16.53
2018-03-25T16:07:57.920Z,17.13
2018-03-25T16:10:25.383Z,17.47
2018-03-25T16:12:52.844Z,18.50
2018-03-25T16:15:20.304Z,18.10
2018-03-25T16:17:47.752Z,17.40
2018-03-25T16:20:15.224Z,18.03
2018-03-25T16:22:42.666Z,16.43
2018-03-25T16:25:10.121Z,18.42
2018-03-25T16:27:37.569Z,18.33
2018-03-25T16:30:05.016Z,17.70
2018-03-25T16:32:32.472Z,18.00
2018-03-25T16:34:59.947Z,18.90
2018-03-25T16:37:27.401Z,17.83
2018-03-25T16:39:54.854Z,18.90
2018-03-25T16:42:22.308Z,18.13
2018-03-25T16:44:49.770Z,18.20
2018-03-25T16:47:17.224Z,17.85
2018-03-25T16:49:44.665Z,15.90
2018-03-25T16:52:12.131Z,17.97
2018-03-25T16:54:39.581Z,17.10
2018-03-25T16:57:07.039Z,18.23
2018-03-25T16:59:34.497Z,16.85
2018-03-25T17:02:01.967Z,17.23
2018-03-25T17:04:29.426Z,17.70
2018-03-25T17:06:56.891Z,16.40
2018-03-25T17:09:24.351Z,17.17
2018-03-25T17:11:51.805Z,17.97
2018-03-25T17:14:19.466Z,17.63
2018-03-25T17:32:45.172Z,16.30
2018-03-25T17:35:12.631Z,18.93
2018-03-25T17:37:40.128Z,16.52
2018-03-25T17:40:07.573Z,16.30
2018-03-25T17:42:35.038Z,20.07
2018-03-25T17:45:02.476Z,18.50
2018-03-25T17:47:29.925Z,19.37
2018-03-25T17:49:57.418Z,16.83
2018-03-25T17:52:24.880Z,16.43
2018-03-25T17:54:52.329Z,18.83
2018-03-25T17:57:19.797Z,20.07
2018-03-25T17:59:47.245Z,19.12
2018-03-25T18:02:14.710Z,22.60
2018-03-25T18:04:42.162Z,20.00
2018-03-25T18:07:09.612Z,18.13
2018-03-25T18:12:30.317Z,16.73
2018-03-25T18:14:57.784Z,16.30
2018-03-25T18:17:34.098Z,14.83
2018-03-25T18:19:54.214Z,17.23
2018-03-25T18:22:21.692Z,17.00
2018-03-25T18:24:49.147Z,15.77
2018-03-25T18:27:16.634Z,15.10
2018-03-25T18:29:45.495Z,16.42
2018-03-25T18:32:12.973Z,15.10
2018-03-25T18:34:40.443Z,16.63
2018-03-25T18:37:08.692Z,16.13
2018-03-25T18:39:36.158Z,20.30
2018-03-25T18:42:03.623Z,19.50
2018-03-25T18:44:31.154Z,17.47
2018-03-25T18:46:59.327Z,16.97
2018-03-25T18:49:26.842Z,17.17
2018-03-25T18:51:54.278Z,16.20
2018-03-25T18:54:21.739Z,19.10
2018-03-25T18:56:49.977Z,21.77
2018-03-25T18:59:17.452Z,17.53
2018-03-25T19:01:44.940Z,16.90
2018-03-25T19:04:13.208Z,15.47
2018-03-25T19:06:41.437Z,16.33
2018-03-25T19:09:08.932Z,15.70
2018-03-25T19:11:36.493Z,15.20
2018-03-25T19:14:04.747Z,15.47
2018-03-25T19:16:32.227Z,15.53
2018-03-25T19:18:59.709Z,19.33
2018-03-25T19:21:27.935Z,22.50
2018-03-25T19:23:55.408Z,26.07
2018-03-25T19:26:22.886Z,32.50
2018-03-25T19:28:51.130Z,29.93
2018-03-25T19:31:18.591Z,19.00
2018-03-25T19:33:46.067Z,17.83
2018-03-25T19:36:14.304Z,16.30
2018-03-25T19:38:41.764Z,22.37
2018-03-25T19:41:09.263Z,21.30
2018-03-25T19:43:37.505Z,19.80
2018-03-25T19:46:04.976Z,15.83
2018-03-25T19:48:33.235Z,16.60
2018-03-25T19:51:00.699Z,16.90
2018-03-25T19:53:28.165Z,23.23
2018-03-25T19:55:55.641Z,20.95
2018-03-25T19:58:23.107Z,18.30
2018-03-25T20:00:51.348Z,14.50
2018-03-25T20:03:18.814Z,17.13
2018-03-25T20:05:46.268Z,16.00
2018-03-25T20:08:14.556Z,15.97
2018-03-25T20:10:42.000Z,17.40
2018-03-25T20:13:09.464Z,15.83
2018-03-25T20:15:36.976Z,18.70
2018-03-25T20:18:04.449Z,19.77
2018-03-25T20:20:31.948Z,17.67
2018-03-25T20:22:59.402Z,16.73
2018-03-25T20:25:26.880Z,15.23
2018-03-25T20:27:55.099Z,16.03
2018-03-25T20:30:24.412Z,14.73
2018-03-25T20:32:51.870Z,15.97
2018-03-25T20:35:19.962Z,15.47
2018-03-25T20:37:47.419Z,16.50
2018-03-25T20:40:14.898Z,15.43
2018-03-25T20:42:43.128Z,15.10
2018-03-25T20:45:14.475Z,13.90
2018-03-25T20:47:41.936Z,15.57
2018-03-25T20:50:10.281Z,16.40
2018-03-25T20:52:37.751Z,16.52
2018-03-25T20:55:05.276Z,17.03
2018-03-25T20:57:32.683Z,15.20
2018-03-25T21:00:00.176Z,16.23
2018-03-25T21:02:28.411Z,16.50
2018-03-25T21:04:55.883Z,18.10
2018-03-25T21:07:23.370Z,21.17
2018-03-25T21:09:51.595Z,20.10
2018-03-25T21:12:19.068Z,20.17
2018-03-25T21:14:46.524Z,18.90
2018-03-25T21:17:13.984Z,19.13
2018-03-25T21:19:41.450Z,17.90
2018-03-25T21:22:09.683Z,16.03
2018-03-25T21:24:37.256Z,15.53
2018-03-25T21:27:08.444Z,15.52
2018-03-25T21:29:35.904Z,15.23
2018-03-25T21:32:03.390Z,14.90
2018-03-25T21:34:30.864Z,13.70
2018-03-25T21:36:58.332Z,14.52
2018-03-25T21:39:25.799Z,16.10
2018-03-25T21:41:53.276Z,22.30
2018-03-25T21:44:20.741Z,25.93
2018-03-25T21:46:48.207Z,20.60
2018-03-25T21:49:15.795Z,16.20
2018-03-25T21:51:43.327Z,16.73
2018-03-25T21:54:10.788Z,14.30
2018-03-25T21:56:38.223Z,15.60
2018-03-25T21:59:06.460Z,14.37
2018-03-25T22:04:27.516Z,20.10
2018-03-25T22:06:54.975Z,20.67
2018-03-25T22:09:28.968Z,19.90
2018-03-25T22:11:56.436Z,19.83
2018-03-25T22:14:23.884Z,20.70
2018-03-25T22:16:51.352Z,17.20
2018-03-25T22:19:18.805Z,17.83
2018-03-25T22:21:46.251Z,16.97
2018-03-25T22:24:13.709Z,16.30
2018-03-25T22:26:41.177Z,15.83
2018-03-25T22:29:09.561Z,16.93
2018-03-25T22:31:37.013Z,15.43
2018-03-25T22:34:04.477Z,17.13
2018-03-25T22:36:31.916Z,16.80
2018-03-25T22:38:59.381Z,18.40
2018-03-25T22:41:26.844Z,17.10
2018-03-25T22:43:54.293Z,19.67
2018-03-25T22:46:21.736Z,19.47
2018-03-25T22:48:49.188Z,17.63
2018-03-25T22:51:17.578Z,17.40
2018-03-25T22:53:45.812Z,18.23
2018-03-25T22:56:14.032Z,18.57
2018-03-25T22:58:41.476Z,17.53
2018-03-25T23:01:08.922Z,16.10
2018-03-25T23:20:47.533Z,17.80
2018-03-25T23:23:15.748Z,17.57
2018-03-25T23:25:43.267Z,17.95
2018-03-25T23:28:10.683Z,18.80
2018-03-25T23:30:38.149Z,20.23
2018-03-25T23:33:05.620Z,18.40
2018-03-25T23:35:33.056Z,17.10
2018-03-25T23:38:00.568Z,17.20
2018-03-25T23:40:28.785Z,18.83
2018-03-25T23:42:56.249Z,17.33
2018-03-25T23:45:23.720Z,18.83
2018-03-25T23:47:51.188Z,19.70
2018-03-25T23:50:18.645Z,16.97
2018-03-25T23:52:46.108Z,17.47
2018-03-25T23:55:14.340Z,18.30
2018-03-25T23:57:41.815Z,17.10
